Eviapetrol I — SY5401 — position and weather

sailwx.info

Track history (hours):
 
Tides and Currents Weather Stations Pressure Air Temp Water Temp Dewpoint Dewpoint Depression Visibility Wind Speed Wind Dir Waves Ship Positions

Eviapetrol I

Last reported at 2015-Jul-03 11:31 UTC. Time now 2015-Jul-03 12:18 UTC.
Position N 38°01' E 023°36'.

Length 75 m; draft 4.5 m.

Type: Tanker. MMSI: 240285000.

Date/timePositionNaut miles runAvg speedWind from/ knotsBaromVisibWave heightAir tempDewpointWater temp
2015-Jul-03 11:31N 38°01' E 023°36'0 0.0
2015-Jul-03 10:25N 38°01' E 023°36'0 0.0
2015-Jul-03 09:31N 38°01' E 023°36'0 0.0
2015-Jul-03 08:31N 38°01' E 023°36'0 0.0
2015-Jul-03 07:25N 38°01' E 023°36'0 0.0
2015-Jul-03 06:33N 38°01' E 023°36'3 2.7
2015-Jul-03 05:33N 37°60' E 023°33'5 5.1
2015-Jul-03 04:33N 37°55' E 023°36'5 5.4
2015-Jul-03 03:33N 37°51' E 023°39'10 9.7
2015-Jul-03 02:33N 37°42' E 023°45'121 2.4
2015-Jul-01 00:32N 35°52' E 024°46'9 9.3
2015-Jun-30 23:33N 36°00' E 024°40'94 9.4
2015-Jun-30 13:32N 37°25' E 023°50'9 9.3
2015-Jun-30 12:33N 37°33' E 023°45'9 9.4
2015-Jun-30 11:33N 37°42' E 023°41'9 9.3
2015-Jun-30 10:33N 37°50' E 023°36'8 7.7
2015-Jun-30 09:33N 37°58' E 023°33'4 4.0
2015-Jun-30 08:33N 38°02' E 023°32'3 2.5
2015-Jun-30 07:31N 38°02' E 023°36'0 0.0
2015-Jun-30 06:22N 38°02' E 023°36'0 0.0
2015-Jun-30 05:28N 38°02' E 023°36'0 0.0
2015-Jun-30 03:10N 38°02' E 023°36'0 0.0
2015-Jun-30 02:31N 38°02' E 023°36'0 0.0
2015-Jun-30 01:22N 38°02' E 023°36'0 0.0
2015-Jun-30 00:22N 38°02' E 023°36'0 0.0
2015-Jun-29 23:28N 38°02' E 023°36'0 0.0
2015-Jun-29 22:31N 38°02' E 023°36'0 0.0
2015-Jun-29 21:31N 38°02' E 023°36'0 0.0
2015-Jun-29 20:31N 38°02' E 023°36'0 0.0
2015-Jun-29 19:31N 38°02' E 023°36'0 0.0
2015-Jun-29 18:31N 38°02' E 023°36'0 0.2
2015-Jun-29 17:33N 38°02' E 023°35'9 8.6
2015-Jun-29 16:33N 37°59' E 023°25'8 7.6
2015-Jun-29 15:31N 37°56' E 023°16'9 9.1
2015-Jun-29 14:33N 37°54' E 023°05'  
2015-Jun-26 22:33N 37°54' E 023°08'9 9.2
2015-Jun-26 21:33N 37°56' E 023°19'7 7.4
2015-Jun-26 20:33N 38°00' E 023°27'7 7.1
2015-Jun-26 19:33N 38°01' E 023°36'0 0.0
2015-Jun-26 18:33N 38°01' E 023°36'0 0.0
2015-Jun-26 17:33N 38°01' E 023°36'0 0.0
2015-Jun-26 16:33N 38°01' E 023°36'0 0.0
2015-Jun-26 15:33N 38°01' E 023°36'0 0.0
2015-Jun-26 14:33N 38°01' E 023°36'0 0.0
2015-Jun-26 13:33N 38°01' E 023°36'0 0.0
2015-Jun-26 12:33N 38°01' E 023°36'0 0.0
2015-Jun-26 11:33N 38°01' E 023°36'0 0.0
2015-Jun-26 10:33N 38°01' E 023°36'0 0.1
2015-Jun-26 06:33N 38°02' E 023°36'6 2.2
2015-Jun-26 03:33N 37°55' E 023°36'9 9.3
2015-Jun-26 02:33N 37°47' E 023°42'108 2.6
2015-Jun-24 09:24N 37°34' E 025°57'7 8.5
2015-Jun-24 08:33N 37°27' E 025°56'11 8.0
2015-Jun-24 07:07N 37°15' E 025°54'13 8.5
2015-Jun-24 05:33N 37°02' E 025°50'8 8.3
2015-Jun-24 04:33N 36°55' E 025°46'9 8.9
2015-Jun-24 03:33N 36°47' E 025°41'9 9.0
2015-Jun-24 02:33N 36°41' E 025°33'9 9.0
2015-Jun-24 01:33N 36°35' E 025°25'9 9.0
2015-Jun-24 00:33N 36°29' E 025°16'9 9.1
2015-Jun-23 23:33N 36°23' E 025°08'9 9.4
2015-Jun-23 22:33N 36°16' E 024°59'10 9.6
2015-Jun-23 21:33N 36°10' E 024°50'  
Track history (hours):
 
Tides and Currents Weather Stations Pressure Air Temp Water Temp Dewpoint Dewpoint Depression Visibility Wind Speed Wind Dir Waves Ship Positions

Eviapetrol I

Last reported at 2015-Jul-03 11:31 UTC. Time now 2015-Jul-03 12:18 UTC.
Position N 38°01' E 023°36'.

Length 75 m; draft 4.5 m.

Type: Tanker. MMSI: 240285000.

Date/timePositionNaut miles runAvg speedWind from/ knotsBaromVisibWave heightAir tempDewpointWater temp
2015-Jul-03 11:31N 38°01' E 023°36'0 0.0
2015-Jul-03 10:25N 38°01' E 023°36'0 0.0
2015-Jul-03 09:31N 38°01' E 023°36'0 0.0
2015-Jul-03 08:31N 38°01' E 023°36'0 0.0
2015-Jul-03 07:25N 38°01' E 023°36'0 0.0
2015-Jul-03 06:33N 38°01' E 023°36'3 2.7
2015-Jul-03 05:33N 37°60' E 023°33'5 5.1
2015-Jul-03 04:33N 37°55' E 023°36'5 5.4
2015-Jul-03 03:33N 37°51' E 023°39'10 9.7
2015-Jul-03 02:33N 37°42' E 023°45'121 2.4
2015-Jul-01 00:32N 35°52' E 024°46'9 9.3
2015-Jun-30 23:33N 36°00' E 024°40'94 9.4
2015-Jun-30 13:32N 37°25' E 023°50'9 9.3
2015-Jun-30 12:33N 37°33' E 023°45'9 9.4
2015-Jun-30 11:33N 37°42' E 023°41'9 9.3
2015-Jun-30 10:33N 37°50' E 023°36'8 7.7
2015-Jun-30 09:33N 37°58' E 023°33'4 4.0
2015-Jun-30 08:33N 38°02' E 023°32'3 2.5
2015-Jun-30 07:31N 38°02' E 023°36'0 0.0
2015-Jun-30 06:22N 38°02' E 023°36'0 0.0
2015-Jun-30 05:28N 38°02' E 023°36'0 0.0
2015-Jun-30 03:10N 38°02' E 023°36'0 0.0
2015-Jun-30 02:31N 38°02' E 023°36'0 0.0
2015-Jun-30 01:22N 38°02' E 023°36'0 0.0
2015-Jun-30 00:22N 38°02' E 023°36'0 0.0
2015-Jun-29 23:28N 38°02' E 023°36'0 0.0
2015-Jun-29 22:31N 38°02' E 023°36'0 0.0
2015-Jun-29 21:31N 38°02' E 023°36'0 0.0
2015-Jun-29 20:31N 38°02' E 023°36'0 0.0
2015-Jun-29 19:31N 38°02' E 023°36'0 0.0
2015-Jun-29 18:31N 38°02' E 023°36'0 0.2
2015-Jun-29 17:33N 38°02' E 023°35'9 8.6
2015-Jun-29 16:33N 37°59' E 023°25'8 7.6
2015-Jun-29 15:31N 37°56' E 023°16'9 9.1
2015-Jun-29 14:33N 37°54' E 023°05'  
2015-Jun-26 22:33N 37°54' E 023°08'9 9.2
2015-Jun-26 21:33N 37°56' E 023°19'7 7.4
2015-Jun-26 20:33N 38°00' E 023°27'7 7.1
2015-Jun-26 19:33N 38°01' E 023°36'0 0.0
2015-Jun-26 18:33N 38°01' E 023°36'0 0.0
2015-Jun-26 17:33N 38°01' E 023°36'0 0.0
2015-Jun-26 16:33N 38°01' E 023°36'0 0.0
2015-Jun-26 15:33N 38°01' E 023°36'0 0.0
2015-Jun-26 14:33N 38°01' E 023°36'0 0.0
2015-Jun-26 13:33N 38°01' E 023°36'0 0.0
2015-Jun-26 12:33N 38°01' E 023°36'0 0.0
2015-Jun-26 11:33N 38°01' E 023°36'0 0.0
2015-Jun-26 10:33N 38°01' E 023°36'0 0.1
2015-Jun-26 06:33N 38°02' E 023°36'6 2.2
2015-Jun-26 03:33N 37°55' E 023°36'9 9.3
2015-Jun-26 02:33N 37°47' E 023°42'108 2.6
2015-Jun-24 09:24N 37°34' E 025°57'7 8.5
2015-Jun-24 08:33N 37°27' E 025°56'11 8.0
2015-Jun-24 07:07N 37°15' E 025°54'13 8.5
2015-Jun-24 05:33N 37°02' E 025°50'8 8.3
2015-Jun-24 04:33N 36°55' E 025°46'9 8.9
2015-Jun-24 03:33N 36°47' E 025°41'9 9.0
2015-Jun-24 02:33N 36°41' E 025°33'9 9.0
2015-Jun-24 01:33N 36°35' E 025°25'9 9.0
2015-Jun-24 00:33N 36°29' E 025°16'9 9.1
2015-Jun-23 23:33N 36°23' E 025°08'9 9.4
2015-Jun-23 22:33N 36°16' E 024°59'10 9.6
2015-Jun-23 21:33N 36°10' E 024°50'  

Dump ship's entire track history